首页
METAR-TAF:

METAR-TAF

机场 :

印威內斯, 苏格兰

纬度: 57-32N, 经度: 004-03W, 海拔: 9米

当前天气观测

该预报发布于33分钟前的02:50 UTC
风速4节,风向南转西南
温度 -2°C
湿度 100%
气压 1004 hPa
能见度10公里或以上

METAR: EGPE 140250Z 21004KT 9999 NSC M02/M02 Q1004

时间: 03:23 (03:23 UTC)

预报

该预报发布于1小时和29分钟前的01:54 UTC
预报有效从14日的 03点(UTC)到 14日的 12点(UTC)
风速9节,风向北转西北
能见度10公里或以上
散云层高于3000英尺
几率 30%
从 14日的 03点(UTC)到 14日的 09点(UTC)
能見度: 0300
冻雾
几率 30% :
短暂存在
从 14日的 09点(UTC)到 14日的 12点(UTC)
能見度: 7000
多云层高于1000英尺
阵雨

TAF: EGPE 140154Z 1403/1412 34009KT 9999 SCT030 PROB30 1403/1409 0300 FZFG VV/// PROB30 TEMPO 1409/1412 7000 SHRA BKN010

超过4000个机场的气象观测和天气预报(METAR&TAF报告)。

可查询的气象台以黄色和红色小点在地图上表示。

将鼠标移到小点上方,可查看气象台名称。

然后点击查看天气观测和预报。

如需切换地图:点击带黑十字的绿色按钮放大地图;点击带横线的绿色按钮缩小地图;或者点击绿色箭头查看邻近地区的地图。


METAR-TAF: